Latest Weather Observations for Bellambi

IDN60801

Issued at 10:35 pm EST Thursday 28 August 2014 (issued every 30 minutes, with the page automatically refreshed every 10 minutes)

About weather observations | Map of weather stations | Latest weather observations for NSW | Other Formats
Station Details ID: 068228 Name: BELLAMBI AWS Lat: -34.37 Lon: 150.93 Height: 10.0 m
Data from the previous 72 hours. | See also: Recent months at Bellambi
Date/Time
EST
Temp
°C
App
Temp
°C
Dew
Point
Rel
Hum
%
Delta-T
°C
Wind Press
QNH
hPa
Press
MSL
hPa
Rain
since 9 am
mm
Dir
 
Spd
km/h
Gust
km/h
Spd
kts
Gust
kts
28/10:30pm 12.0 8.7 8.1 77 1.9 SW 15 19 8 10 - - 0.8
28/10:00pm 12.3 9.1 8.4 77 1.9 SW 15 20 8 11 - - 0.8
28/09:30pm 12.3 8.8 8.8 79 1.7 SW 17 26 9 14 - - 0.8
28/09:00pm 12.8 9.3 8.7 76 2.0 SW 17 26 9 14 - - 0.8
28/08:30pm 12.8 9.6 8.3 74 2.2 SW 15 22 8 12 - - 0.8
28/08:00pm 12.7 9.0 7.8 72 2.4 WSW 17 22 9 12 - - 0.8
28/07:30pm 13.1 9.4 7.8 70 2.6 SW 17 20 9 11 - - 0.8
28/07:00pm 15.3 9.6 8.5 64 3.4 S 28 33 15 18 - - 0.8
28/06:30pm 15.4 9.8 8.6 64 3.5 S 28 35 15 19 - - 0.8
28/06:00pm 15.4 9.7 8.4 63 3.5 S 28 33 15 18 - - 0.8
28/05:30pm 15.5 10.4 9.2 66 3.2 SSE 26 33 14 18 - - 0.8
28/05:00pm 15.6 10.5 9.3 66 3.2 S 26 35 14 19 - - 0.8
28/04:30pm 15.6 10.3 9.7 68 3.1 SSE 28 35 15 19 - - 0.8
28/04:00pm 16.2 10.4 9.6 65 3.4 S 30 41 16 22 - - 0.6
28/03:30pm 16.0 10.2 10.7 71 2.8 S 32 39 17 21 - - 0.6
28/03:00pm 15.9 10.4 11.9 77 2.2 S 32 39 17 21 - - 0.6
28/02:30pm 15.7 9.9 11.5 76 2.3 S 33 43 18 23 - - 0.6
28/02:00pm 16.7 11.4 11.2 70 3.0 S 30 37 16 20 - - 0.6
28/01:30pm 15.9 11.4 11.5 75 2.4 SSE 26 32 14 17 - - 0.6
28/01:00pm 15.0 12.6 12.5 85 1.4 SSW 17 24 9 13 - - 0.6
28/12:30pm 14.6 10.6 11.7 83 1.6 S 24 32 13 17 - - 0.4
28/12:00pm 16.0 10.5 12.0 77 2.2 S 32 43 17 23 - - 0.2
28/11:30am 15.8 10.7 11.8 77 2.2 S 30 35 16 19 - - 0.2
28/11:00am 15.7 10.6 11.9 78 2.1 S 30 33 16 18 - - 0.2
28/10:30am 15.5 10.1 12.1 80 1.9 S 32 37 17 20 - - 0.2
28/10:00am 15.3 9.8 11.7 79 1.9 S 32 35 17 19 - - 0.0
28/09:30am 15.1 11.1 11.7 80 1.8 SSW 24 30 13 16 - - 0.0
28/09:00am 14.2 10.9 11.7 85 1.3 SW 20 28 11 15 - - 3.4
28/08:30am 13.8 10.6 12.0 89 1.0 SW 20 30 11 16 - - 3.4
28/08:00am 13.0 9.6 11.4 90 0.8 SW 20 28 11 15 - - 3.4
28/07:30am 12.3 8.7 10.7 90 0.8 SW 20 28 11 15 - - 3.4
28/07:00am 12.0 8.4 10.4 90 0.8 SW 20 26 11 14 - - 3.4
28/06:30am 11.8 8.3 10.2 90 0.8 SW 19 24 10 13 - - 3.2
28/06:00am 11.8 8.3 10.2 90 0.8 SW 19 24 10 13 - - 3.2
28/05:30am 11.9 8.2 10.1 89 0.9 SW 20 26 11 14 - - 3.2
28/05:00am 12.1 7.7 10.5 90 0.8 SW 24 30 13 16 - - 3.0
28/04:30am 12.1 8.5 10.5 90 0.8 SW 20 30 11 16 - - 3.0
28/04:00am 12.0 8.0 10.6 91 0.7 SW 22 32 12 17 - - 3.0
28/03:30am 12.0 8.0 10.6 91 0.7 SW 22 30 12 16 - - 3.0
28/03:00am 11.9 7.9 10.3 90 0.8 SW 22 32 12 17 - - 3.0
28/02:30am 12.2 8.6 10.4 89 0.9 SW 20 26 11 14 - - 3.0
28/02:00am 12.3 7.9 10.5 89 0.9 SW 24 32 13 17 - - 2.2
28/01:30am 12.4 8.4 10.6 89 0.9 SW 22 30 12 16 - - 1.6
28/01:00am 12.3 8.3 10.5 89 0.9 SW 22 32 12 17 - - 1.4
28/12:30am 12.3 8.9 10.4 88 1.0 SW 19 26 10 14 - - 1.4
28/12:00am 12.9 7.9 10.8 87 1.1 SSW 28 41 15 22 - - 1.4
 
Date/Time
EST
Temp
°C
App
Temp
°C
Dew
Point
Rel
Hum
%
Delta-T
°C
Wind Press
QNH
hPa
Press
MSL
hPa
Rain
since 9 am
mm
Dir
 
Spd
km/h
Gust
km/h
Spd
kts
Gust
kts
27/11:30pm 12.5 8.7 9.7 83 1.4 SW 20 32 11 17 - - 1.4
27/11:00pm 12.9 8.9 9.2 78 1.9 SW 20 28 11 15 - - 1.2
27/10:30pm 12.8 9.0 9.1 78 1.9 SW 19 26 10 14 - - 1.2
27/10:00pm 12.7 8.9 9.2 79 1.8 SW 19 24 10 13 - - 1.2
27/09:30pm 12.7 9.0 9.3 80 1.7 WSW 19 24 10 13 - - 1.2
27/09:00pm 12.7 9.3 9.2 79 1.8 SW 17 24 9 13 - - 1.2
27/08:30pm 14.4 8.1 9.8 74 2.4 S 33 43 18 23 - - 1.2
27/08:00pm 14.4 8.8 11.6 83 1.5 S 32 39 17 21 - - 1.2
27/07:30pm 12.7 9.3 9.2 79 1.8 SW 17 22 9 12 - - 1.2
27/07:00pm 12.7 9.3 9.3 80 1.7 SW 17 20 9 11 - - 1.2
27/06:30pm 13.1 9.8 9.7 80 1.7 SW 17 24 9 13 - - 1.2
27/06:00pm 14.3 9.1 10.3 77 2.1 SSW 28 37 15 20 - - 1.2
27/05:30pm 14.8 8.9 11.0 78 2.0 SSW 33 39 18 21 - - 1.2
27/05:00pm 15.6 9.6 10.8 73 2.5 S 33 44 18 24 - - 1.2
27/04:30pm 14.5 10.1 11.6 83 1.6 SSW 26 35 14 19 - - 1.2
27/04:00pm 14.6 8.0 11.2 80 1.8 SSW 37 46 20 25 - - 0.8
27/03:30pm 15.3 8.0 11.5 78 2.0 S 41 46 22 25 - - 0.6
27/03:00pm 15.4 8.2 12.0 80 1.8 S 41 50 22 27 - - 0.6
27/02:30pm 14.3 8.2 11.8 85 1.3 SSW 35 43 19 23 - - 0.6
27/02:00pm 15.2 8.7 11.6 79 1.9 S 37 44 20 24 - - 0.0
27/01:30pm 16.0 9.7 12.2 78 2.1 S 37 44 20 24 - - 0.0
27/01:00pm 15.5 9.4 11.7 78 2.1 S 35 46 19 25 - - 0.0
27/12:30pm 15.9 9.3 11.3 74 2.5 S 37 44 20 24 - - 0.0
27/12:00pm 15.8 9.5 11.0 73 2.6 S 35 44 19 24 - - 0.0
27/11:30am 16.6 11.0 12.2 75 2.4 S 33 44 18 24 - - 0.0
27/11:00am 16.5 10.8 11.9 74 2.5 S 33 43 18 23 - - 0.0
27/10:30am 16.2 9.9 10.9 71 2.8 S 35 43 19 23 - - 0.0
27/10:00am 16.1 9.9 11.3 73 2.6 S 35 44 19 24 - - 0.0
27/09:30am 16.3 10.5 11.5 73 2.6 S 33 43 18 23 - - 0.0
27/09:00am 16.1 9.8 11.1 72 2.7 SSE 35 43 19 23 - - 39.8
27/08:30am 15.8 9.0 11.8 77 2.2 S 39 46 21 25 - - 39.8
27/08:00am 15.6 8.6 11.4 76 2.3 S 39 46 21 25 - - 39.8
27/07:30am 15.5 8.6 11.5 77 2.2 S 39 50 21 27 - - 39.8
27/07:00am 15.3 8.3 11.3 77 2.1 S 39 48 21 26 - - 39.8
27/06:30am 15.2 8.6 11.4 78 2.0 S 37 48 20 26 - - 39.8
27/06:00am 15.1 8.0 10.9 76 2.2 S 39 48 21 26 - - 39.8
27/05:30am 15.1 8.4 11.1 77 2.1 SSE 37 44 20 24 - - 39.8
27/05:00am 15.0 8.4 11.2 78 2.0 SSE 37 48 20 26 - - 39.8
27/04:30am 14.7 7.9 12.0 84 1.5 S 39 50 21 27 - - 39.8
27/04:25am 14.6 9.3 12.6 88 1.1 S 32 50 17 27 - - 39.8
27/04:19am 13.6 9.6 11.7 88 1.0 S 24 30 13 16 - - 39.6
27/04:00am 14.0 7.6 11.9 87 1.1 SSE 37 46 20 25 - - 38.6
27/03:30am 13.9 7.8 11.9 88 1.1 SSE 35 46 19 25 - - 38.6
27/03:00am 14.7 7.8 11.7 82 1.6 SSE 39 54 21 29 - - 38.6
27/02:30am 15.4 8.5 11.6 78 2.0 SSE 39 48 21 26 - - 38.6
27/02:00am 15.4 8.9 11.8 79 1.9 SSE 37 46 20 25 - - 38.6
27/01:30am 15.5 9.2 12.4 82 1.7 SSE 37 44 20 24 - - 38.6
27/01:00am 14.8 11.8 12.5 86 1.3 S 20 30 11 16 - - 38.6
27/12:45am 13.5 6.2 10.1 80 1.8 S 39 46 21 25 - - 38.0
27/12:30am 14.8 7.9 11.6 81 1.7 SSE 39 48 21 26 - - 37.8
27/12:00am 16.0 9.0 12.4 79 2.0 SSE 41 48 22 26 - - 37.8
 
Date/Time
EST
Temp
°C
App
Temp
°C
Dew
Point
Rel
Hum
%
Delta-T
°C
Wind Press
QNH
hPa
Press
MSL
hPa
Rain
since 9 am
mm
Dir
 
Spd
km/h
Gust
km/h
Spd
kts
Gust
kts
26/11:30pm 16.1 9.5 12.5 79 2.0 SSE 39 48 21 26 - - 37.6
26/11:00pm 16.3 10.3 12.1 76 2.3 SSE 35 43 19 23 - - 37.6
26/10:30pm 16.4 9.6 12.0 75 2.4 SE 39 44 21 24 - - 37.6
26/10:00pm 16.5 9.9 12.5 77 2.2 SE 39 46 21 25 - - 37.6
26/09:30pm 16.5 10.7 12.8 79 2.1 SE 35 43 19 23 - - 37.6
26/09:00pm 16.3 10.5 12.8 80 1.9 SE 35 41 19 22 - - 37.6
26/08:30pm 16.1 10.7 13.8 86 1.3 SE 35 41 19 22 - - 37.6
26/08:08pm 15.2 11.2 14.2 94 0.6 SSE 28 37 15 20 - - 37.6
26/08:00pm 13.4 12.4 12.3 93 0.6 SW 9 17 5 9 - - 37.6
26/07:30pm 13.1 12.4 12.0 93 0.6 WSW 7 15 4 8 - - 37.4
26/07:00pm 13.2 13.4 11.9 92 0.7 W 2 9 1 5 - - 33.0
26/06:30pm 13.6 10.7 12.3 92 0.7 S 19 24 10 13 - - 28.8
26/06:00pm 13.2 10.0 11.8 91 0.7 ESE 20 30 11 16 - - 24.0
26/05:52pm 13.3 9.7 11.7 90 0.9 SE 22 30 12 16 - - 22.4
26/05:43pm 14.0 7.2 12.0 88 1.1 E 39 44 21 24 - - 20.4
26/05:41pm 14.9 10.6 13.3 90 0.9 SE 28 46 15 25 - - 19.8
26/05:30pm 15.3 11.3 14.0 92 0.7 SE 28 32 15 17 - - 19.6
26/05:00pm 13.9 11.6 13.0 94 0.5 SSW 17 22 9 12 - - 19.6
26/04:38pm 13.6 11.6 12.7 94 0.5 WSW 15 19 8 10 - - 19.6
26/04:30pm 13.6 11.6 12.7 94 0.5 WSW 15 20 8 11 - - 19.0
26/04:11pm 13.8 12.2 12.7 93 0.6 SW 13 19 7 10 - - 18.0
26/04:00pm 13.9 11.2 12.8 93 0.6 SW 19 24 10 13 - - 15.8
26/03:30pm 14.3 11.1 13.2 93 0.6 SSW 22 28 12 15 - - 14.4
26/03:00pm 14.0 11.3 12.9 93 0.6 SW 19 26 10 14 - - 13.8
26/02:30pm 14.1 11.7 12.8 92 0.7 SSW 17 22 9 12 - - 13.4
26/02:00pm 13.8 11.4 12.7 93 0.6 SW 17 24 9 13 - - 13.2
26/01:30pm 13.2 10.7 12.3 94 0.5 SW 17 20 9 11 - - 13.2
26/01:00pm 12.8 10.5 11.9 94 0.5 SW 15 19 8 10 - - 13.0
26/12:53pm 12.7 10.0 11.6 93 0.6 SW 17 24 9 13 - - 12.8
26/12:30pm 13.4 10.5 12.3 93 0.6 SW 19 24 10 13 - - 10.8
26/12:24pm 13.5 11.0 12.4 93 0.6 SSW 17 24 9 13 - - 10.4
26/12:00pm 13.7 11.6 12.4 92 0.7 SW 15 19 8 10 - - 7.2
26/11:30am 13.5 10.9 12.1 91 0.8 S 17 20 9 11 - - 5.8
26/11:00am 14.6 13.1 13.1 91 0.8 SSW 13 17 7 9 - - 2.4
26/10:44am 14.3 13.1 12.9 91 0.8 SW 11 13 6 7 - - 2.4
26/10:30am 14.1 12.9 12.7 91 0.8 SW 11 17 6 9 - - 2.4
26/10:24am 14.0 13.1 12.6 91 0.8 SW 9 13 5 7 - - 2.4
26/10:00am 14.2 12.5 12.6 90 0.9 N 13 17 7 9 - - 2.2
26/09:30am 14.1 11.1 12.5 90 0.9 ENE 20 26 11 14 - - 1.8
26/09:00am 14.2 9.3 12.4 89 1.0 NE 30 33 16 18 - - 23.6
26/08:30am 13.9 11.1 12.5 91 0.8 SE 19 26 10 14 - - 23.4
26/08:09am 14.5 10.1 12.9 90 0.9 SE 28 35 15 19 - - 21.4
26/08:00am 14.3 12.6 12.5 89 1.0 ESE 13 15 7 8 - - 21.0
26/07:30am 14.5 11.1 12.5 88 1.1 E 22 26 12 14 - - 20.8
26/07:00am 14.8 10.4 13.0 89 1.0 E 28 35 15 19 - - 20.4
26/06:30am 14.1 12.1 12.8 92 0.7 NNE 15 20 8 11 - - 20.2
26/06:00am 14.0 8.7 12.6 91 0.8 NE 32 35 17 19 - - 19.4
26/05:49am 14.7 9.0 12.9 89 1.0 NE 35 46 19 25 - - 18.6
26/05:38am 14.5 8.3 12.7 89 1.0 E 37 44 20 24 - - 18.6
26/05:30am 14.0 9.4 12.4 90 0.9 NE 28 39 15 21 - - 18.6
26/05:11am 14.6 10.3 13.3 92 0.7 E 28 37 15 20 - - 17.0
26/05:00am 14.1 12.5 12.7 91 0.8 NE 13 19 7 10 - - 17.0
26/04:30am 14.2 10.5 12.8 91 0.8 E 24 33 13 18 - - 15.0
26/04:00am 15.5 10.2 13.2 86 1.3 E 33 39 18 21 - - 11.4
26/03:30am 15.5 10.2 12.6 83 1.6 E 32 39 17 21 - - 11.4
26/03:00am 15.2 10.0 12.7 85 1.4 ESE 32 37 17 20 - - 11.4
26/02:30am 15.1 8.2 12.8 86 1.3 ESE 41 48 22 26 - - 11.4
26/02:00am 15.3 9.3 13.3 88 1.1 SE 37 46 20 25 - - 11.4
26/01:30am 15.2 8.3 12.9 86 1.3 ESE 41 46 22 25 - - 11.2
26/01:00am 15.4 10.0 12.9 85 1.4 E 33 44 18 24 - - 11.2
26/12:30am 15.7 10.5 13.5 87 1.2 E 33 43 18 23 - - 11.2
26/12:00am 16.0 11.3 13.3 84 1.5 ESE 30 35 16 19 - - 11.2
 
Date/Time
EST
Temp
°C
App
Temp
°C
Dew
Point
Rel
Hum
%
Delta-T
°C
Wind Press
QNH
hPa
Press
MSL
hPa
Rain
since 9 am
mm
Dir
 
Spd
km/h
Gust
km/h
Spd
kts
Gust
kts
25/11:30pm 15.9 10.6 13.2 84 1.5 ESE 33 39 18 21 - - 11.2
25/11:00pm 15.1 12.7 13.8 92 0.7 SSE 19 32 10 17 - - 11.2

Other Formats:

Comma delimited format used in spreadsheet applications
http://www.bom.gov.au/fwo/IDN60801/IDN60801.94749.axf

JavaScript Object Notation format (JSON) in row-major order
http://www.bom.gov.au/fwo/IDN60801/IDN60801.94749.json